createdAt,value
2023-08-08T00:02:07.287Z,74.70
2023-08-08T00:06:06.886Z,75.30
2023-08-08T00:08:33.637Z,75.90
2023-08-08T00:11:00.408Z,75.40
2023-08-08T00:15:29.076Z,75.90
2023-08-08T00:17:55.866Z,75.30
2023-08-08T00:22:04.917Z,75.10
2023-08-08T00:24:31.691Z,75.60
2023-08-08T00:26:58.474Z,76.50
2023-08-08T00:29:25.206Z,76.60
2023-08-08T00:32:55.061Z,76.20
2023-08-08T00:35:21.889Z,77.10
2023-08-08T00:37:49.063Z,76.80
2023-08-08T00:40:15.846Z,77.00
2023-08-08T00:42:42.707Z,77.00
2023-08-08T00:46:23.241Z,77.60
2023-08-08T00:48:50.419Z,77.10
2023-08-08T00:51:18.366Z,78.60
2023-08-08T00:53:45.601Z,77.90
2023-08-08T00:56:15.258Z,79.50
2023-08-08T00:58:42.012Z,79.90
2023-08-08T01:01:08.890Z,80.60
2023-08-08T01:03:35.762Z,81.50
2023-08-08T01:06:07.421Z,80.20
2023-08-08T01:08:59.287Z,81.00
2023-08-08T01:11:26.833Z,81.20
2023-08-08T01:13:53.854Z,80.70
2023-08-08T01:16:20.738Z,80.90
2023-08-08T01:18:48.271Z,81.70
2023-08-08T01:21:15.987Z,81.90
2023-08-08T01:23:48.090Z,81.10
2023-08-08T01:26:14.872Z,81.10
2023-08-08T01:29:27.551Z,80.50
2023-08-08T01:31:54.412Z,79.50
2023-08-08T01:34:21.360Z,79.40
2023-08-08T01:36:57.572Z,80.00
2023-08-08T01:41:55.629Z,79.50
2023-08-08T01:44:24.252Z,79.00
2023-08-08T01:46:51.105Z,79.10
2023-08-08T01:49:17.858Z,78.90
2023-08-08T01:51:44.656Z,80.10
2023-08-08T01:54:11.478Z,78.30
2023-08-08T01:56:38.252Z,78.60
2023-08-08T01:59:05.166Z,78.90
2023-08-08T02:02:39.513Z,79.30
2023-08-08T02:05:06.840Z,78.30
2023-08-08T02:07:34.248Z,78.70
2023-08-08T02:10:01.149Z,78.90
2023-08-08T02:12:29.895Z,79.30
2023-08-08T02:14:59.565Z,79.50
2023-08-08T02:17:27.114Z,78.50
2023-08-08T02:19:54.043Z,77.00
2023-08-08T02:22:20.912Z,78.80
2023-08-08T02:24:47.676Z,78.70
2023-08-08T02:27:15.375Z,78.40
2023-08-08T02:29:42.205Z,79.30
2023-08-08T02:32:09.176Z,78.80
2023-08-08T02:34:36.020Z,78.90
2023-08-08T02:37:02.836Z,78.70
2023-08-08T02:39:29.634Z,78.50
2023-08-08T02:41:56.617Z,77.20
2023-08-08T02:44:49.724Z,79.50
2023-08-08T02:47:16.666Z,79.40
2023-08-08T02:49:43.420Z,78.40
2023-08-08T02:52:10.219Z,78.10
2023-08-08T02:54:37.045Z,78.50
2023-08-08T02:57:04.201Z,79.60
2023-08-08T02:59:30.960Z,78.60
2023-08-08T03:01:57.972Z,79.20
2023-08-08T03:06:23.216Z,78.70
2023-08-08T03:08:49.966Z,79.20
2023-08-08T03:11:16.770Z,78.70
2023-08-08T03:13:43.600Z,79.90
2023-08-08T03:18:18.911Z,80.20
2023-08-08T03:20:45.821Z,81.60
2023-08-08T03:23:12.630Z,80.30
2023-08-08T03:25:39.413Z,79.90
2023-08-08T03:28:06.340Z,80.30
2023-08-08T03:30:33.092Z,82.30
2023-08-08T03:34:41.908Z,81.30
2023-08-08T03:37:08.687Z,80.70
2023-08-08T03:39:35.529Z,81.20
2023-08-08T03:42:02.700Z,81.60
2023-08-08T03:44:29.722Z,80.70
2023-08-08T03:48:25.582Z,79.50
2023-08-08T03:50:52.337Z,79.70
2023-08-08T03:53:19.245Z,81.20
2023-08-08T03:55:46.027Z,79.30
2023-08-08T03:58:12.808Z,79.60
2023-08-08T04:00:41.450Z,80.00
2023-08-08T04:03:08.297Z,79.00
2023-08-08T04:05:35.057Z,78.80
2023-08-08T04:08:01.899Z,78.50
2023-08-08T04:10:28.629Z,77.70
2023-08-08T04:14:11.721Z,77.80
2023-08-08T04:16:40.038Z,77.10
2023-08-08T04:19:06.948Z,77.30
2023-08-08T04:21:33.748Z,76.70
2023-08-08T04:24:00.691Z,77.00
2023-08-08T04:26:27.550Z,75.90
2023-08-08T04:28:54.469Z,77.60
2023-08-08T04:31:21.320Z,76.90
2023-08-08T04:33:48.115Z,75.40
2023-08-08T04:36:14.930Z,76.00
2023-08-08T04:38:41.674Z,77.00
2023-08-08T04:41:08.467Z,75.60
2023-08-08T04:43:35.250Z,76.30
2023-08-08T04:46:02.173Z,76.70
2023-08-08T04:52:33.817Z,75.50
2023-08-08T04:56:06.796Z,74.70
2023-08-08T04:58:33.573Z,74.40
2023-08-08T05:02:30.452Z,72.50
2023-08-08T05:04:57.251Z,73.00
2023-08-08T05:07:24.042Z,70.80
2023-08-08T05:09:50.786Z,69.00
2023-08-08T05:12:17.544Z,67.40
2023-08-08T05:14:44.278Z,67.00
2023-08-08T05:17:11.012Z,66.00
2023-08-08T05:19:37.779Z,65.40
2023-08-08T05:22:04.782Z,65.40
2023-08-08T05:24:31.615Z,64.30
2023-08-08T05:26:58.386Z,63.30
2023-08-08T05:29:25.216Z,63.30
2023-08-08T05:31:51.991Z,63.70
2023-08-08T05:34:18.795Z,63.30
2023-08-08T05:36:45.748Z,60.80
2023-08-08T05:39:12.483Z,61.50
2023-08-08T05:41:39.305Z,57.90
2023-08-08T05:44:06.136Z,57.30
2023-08-08T05:46:32.982Z,55.70
2023-08-08T05:48:59.800Z,54.80
2023-08-08T05:53:54.032Z,51.30
2023-08-08T05:56:20.819Z,49.50
2023-08-08T05:58:47.626Z,49.20
2023-08-08T06:01:14.491Z,48.00
2023-08-08T06:03:41.397Z,51.40
2023-08-08T06:06:08.260Z,51.10
2023-08-08T06:08:35.150Z,50.80
2023-08-08T06:11:01.902Z,52.90
2023-08-08T06:13:28.634Z,51.10
2023-08-08T06:15:55.468Z,49.30
2023-08-08T06:18:22.261Z,46.10
2023-08-08T06:20:49.087Z,37.90
2023-08-08T06:23:16.405Z,37.00
2023-08-08T06:25:43.358Z,34.20
2023-08-08T06:28:10.376Z,26.20
2023-08-08T06:30:37.157Z,20.50
2023-08-08T06:33:04.437Z,10.10
2023-08-08T06:35:31.312Z,1.00
2023-08-08T06:37:58.122Z,1.00
2023-08-08T06:40:24.985Z,1.00
2023-08-08T06:42:51.814Z,1.00
2023-08-08T06:45:18.594Z,1.00
2023-08-08T06:47:45.468Z,1.00
2023-08-08T06:50:12.365Z,1.00
2023-08-08T06:52:39.262Z,1.00
2023-08-08T06:55:06.481Z,1.00
2023-08-08T06:57:33.932Z,1.00
2023-08-08T07:00:00.710Z,1.00
2023-08-08T07:02:27.558Z,1.00
2023-08-08T07:04:54.354Z,1.00
2023-08-08T07:07:21.112Z,1.00
2023-08-08T07:09:48.835Z,1.00
2023-08-08T07:12:15.674Z,1.00
2023-08-08T07:14:42.646Z,1.00
2023-08-08T07:17:09.389Z,1.00
2023-08-08T07:19:37.427Z,1.00
2023-08-08T07:22:04.301Z,1.00
2023-08-08T07:24:31.193Z,1.00
2023-08-08T07:26:59.395Z,1.00
2023-08-08T07:29:26.373Z,1.00
2023-08-08T07:31:54.165Z,1.00
2023-08-08T07:34:21.173Z,1.00
2023-08-08T07:36:48.248Z,1.00
2023-08-08T07:39:15.106Z,1.00
2023-08-08T07:41:41.968Z,1.00
2023-08-08T07:44:08.763Z,1.00
2023-08-08T07:46:35.577Z,1.00
2023-08-08T07:49:04.637Z,1.00
2023-08-08T07:51:31.613Z,1.00
2023-08-08T07:53:58.667Z,1.00
2023-08-08T07:56:25.463Z,1.00
2023-08-08T07:58:52.265Z,1.00
2023-08-08T08:01:19.742Z,1.00
2023-08-08T08:03:46.722Z,1.00
2023-08-08T08:06:13.592Z,1.00
2023-08-08T08:08:40.387Z,1.00
2023-08-08T08:11:07.173Z,1.00
2023-08-08T08:13:33.977Z,1.00
2023-08-08T08:16:00.857Z,1.00
2023-08-08T08:18:28.380Z,1.00
2023-08-08T08:20:55.160Z,1.00
2023-08-08T08:23:22.023Z,1.00
2023-08-08T08:25:49.814Z,1.00
2023-08-08T08:28:16.666Z,1.00
2023-08-08T08:30:44.287Z,1.00
2023-08-08T08:33:11.438Z,1.00
2023-08-08T08:35:38.940Z,1.00
2023-08-08T08:38:05.766Z,1.00
2023-08-08T08:40:36.615Z,1.00
2023-08-08T08:43:03.878Z,1.00
2023-08-08T08:45:30.890Z,1.00
2023-08-08T08:47:58.774Z,1.00
2023-08-08T08:50:27.571Z,1.00
2023-08-08T08:52:56.579Z,1.00
2023-08-08T08:55:23.487Z,1.00
2023-08-08T08:57:50.811Z,1.00
2023-08-08T09:00:20.074Z,1.00
2023-08-08T09:02:47.471Z,1.00
2023-08-08T09:05:14.277Z,1.00
2023-08-08T09:07:42.362Z,1.00
2023-08-08T09:10:09.207Z,1.00
2023-08-08T09:12:37.465Z,1.00
2023-08-08T09:15:05.363Z,1.00
2023-08-08T09:17:46.064Z,1.00
2023-08-08T09:20:14.925Z,1.00
2023-08-08T09:22:41.734Z,1.00
2023-08-08T09:25:09.153Z,1.00
2023-08-08T09:27:36.635Z,1.00
2023-08-08T09:30:03.964Z,1.00
2023-08-08T09:32:33.923Z,1.00
2023-08-08T09:35:00.949Z,1.00
2023-08-08T09:37:29.047Z,1.00
2023-08-08T09:39:59.818Z,1.00
2023-08-08T09:42:30.569Z,1.00
2023-08-08T09:45:00.435Z,1.00
2023-08-08T09:47:32.034Z,1.00
2023-08-08T09:50:02.311Z,1.00
2023-08-08T09:52:29.472Z,1.00
2023-08-08T09:54:56.471Z,1.00
2023-08-08T09:57:23.997Z,1.00
2023-08-08T09:59:50.987Z,1.00
2023-08-08T10:02:18.019Z,1.00
2023-08-08T10:04:48.948Z,1.00
2023-08-08T10:07:16.234Z,1.00
2023-08-08T10:09:43.182Z,1.00
2023-08-08T10:12:09.978Z,1.00
2023-08-08T10:14:38.854Z,1.00
2023-08-08T10:17:06.149Z,1.00
2023-08-08T10:19:33.289Z,1.00
2023-08-08T10:22:01.609Z,1.00
2023-08-08T10:24:34.488Z,1.00
2023-08-08T10:27:03.146Z,1.00
2023-08-08T10:29:31.511Z,1.00
2023-08-08T10:32:04.584Z,1.00
2023-08-08T10:34:44.966Z,1.00
2023-08-08T10:37:13.212Z,1.00
2023-08-08T10:39:56.025Z,1.00
2023-08-08T10:42:24.055Z,1.00
2023-08-08T10:44:55.486Z,1.00
2023-08-08T10:47:26.242Z,1.00
2023-08-08T10:50:00.759Z,1.00
2023-08-08T10:52:27.641Z,1.00
2023-08-08T10:54:57.090Z,1.00
2023-08-08T10:57:27.520Z,1.00
2023-08-08T10:59:55.445Z,1.00
2023-08-08T11:02:23.116Z,1.00
2023-08-08T11:04:51.575Z,1.00
2023-08-08T11:07:18.539Z,1.00
2023-08-08T11:09:45.520Z,1.00
2023-08-08T11:12:16.280Z,1.00
2023-08-08T11:14:43.112Z,1.00
2023-08-08T11:17:09.924Z,1.00
2023-08-08T11:19:41.299Z,1.00
2023-08-08T11:22:14.413Z,1.00
2023-08-08T11:24:41.260Z,1.00
2023-08-08T11:27:08.100Z,1.00
2023-08-08T11:29:35.199Z,1.00
2023-08-08T11:32:03.559Z,1.00
2023-08-08T11:34:34.134Z,1.00
2023-08-08T11:37:01.592Z,1.00
2023-08-08T11:39:28.893Z,1.00
2023-08-08T11:41:56.944Z,1.00
2023-08-08T11:44:24.607Z,1.00
2023-08-08T11:46:51.544Z,1.00
2023-08-08T11:49:18.402Z,1.00
2023-08-08T11:51:46.689Z,1.00
2023-08-08T11:54:14.165Z,1.00
2023-08-08T11:56:40.986Z,1.00
2023-08-08T11:59:08.432Z,1.00
2023-08-08T12:01:35.621Z,1.00
2023-08-08T12:04:07.512Z,1.00
2023-08-08T12:06:34.846Z,1.00
2023-08-08T12:09:02.974Z,1.00
2023-08-08T12:14:01.735Z,1.00
2023-08-08T12:16:32.218Z,1.00
2023-08-08T12:19:03.353Z,1.00
2023-08-08T12:21:30.152Z,1.00
2023-08-08T12:23:56.937Z,1.00
2023-08-08T12:26:24.024Z,1.00
2023-08-08T12:28:52.105Z,1.00
2023-08-08T12:31:18.941Z,1.00
2023-08-08T12:33:46.793Z,1.00
2023-08-08T12:36:14.134Z,1.00
2023-08-08T12:38:41.594Z,1.00
2023-08-08T12:41:08.473Z,1.00
2023-08-08T12:43:35.493Z,1.00
2023-08-08T12:46:02.297Z,1.00
2023-08-08T12:48:29.089Z,1.00
2023-08-08T12:50:55.829Z,1.00
2023-08-08T12:53:22.655Z,1.00
2023-08-08T12:55:49.400Z,1.00
2023-08-08T12:58:16.257Z,1.00
2023-08-08T13:00:43.024Z,1.00
2023-08-08T13:03:11.410Z,1.00
2023-08-08T13:05:38.259Z,1.00
2023-08-08T13:08:05.317Z,1.00
2023-08-08T13:10:32.074Z,1.00
2023-08-08T13:12:59.004Z,1.00
2023-08-08T13:15:26.112Z,1.00
2023-08-08T13:17:52.983Z,1.00
2023-08-08T13:20:19.926Z,1.00
2023-08-08T13:22:46.790Z,1.00
2023-08-08T13:25:13.723Z,1.00
2023-08-08T13:27:40.550Z,1.00
2023-08-08T13:30:08.365Z,1.00
2023-08-08T13:32:35.200Z,1.00
2023-08-08T13:35:02.123Z,1.00
2023-08-08T13:37:28.992Z,1.00
2023-08-08T13:39:55.784Z,1.00
2023-08-08T13:42:22.546Z,1.00
2023-08-08T13:44:49.329Z,1.00
2023-08-08T13:47:16.139Z,1.00
2023-08-08T13:49:42.942Z,1.00
2023-08-08T13:52:10.120Z,1.00
2023-08-08T13:54:36.925Z,1.00
2023-08-08T13:57:03.833Z,1.00
2023-08-08T13:59:30.910Z,1.00
2023-08-08T14:01:57.789Z,1.00
2023-08-08T14:04:24.891Z,1.00
2023-08-08T14:06:51.879Z,1.00
2023-08-08T14:09:19.949Z,1.00
2023-08-08T14:11:46.947Z,1.00
2023-08-08T14:14:13.789Z,1.00
2023-08-08T14:16:40.678Z,1.00
2023-08-08T14:19:07.502Z,1.00
2023-08-08T14:21:34.359Z,1.00
2023-08-08T14:24:01.512Z,1.00
2023-08-08T14:26:28.319Z,1.00
2023-08-08T14:28:55.055Z,1.00
2023-08-08T14:31:21.861Z,1.00
2023-08-08T14:33:48.639Z,1.00
2023-08-08T14:36:15.537Z,1.00
2023-08-08T14:38:42.296Z,1.00
2023-08-08T14:41:09.146Z,1.00
2023-08-08T14:43:35.916Z,1.00
2023-08-08T14:46:02.792Z,1.00
2023-08-08T14:48:29.584Z,1.00
2023-08-08T14:50:56.375Z,1.00
2023-08-08T14:53:23.156Z,1.00
2023-08-08T14:55:50.071Z,1.00
2023-08-08T14:58:16.956Z,1.00
2023-08-08T15:00:43.849Z,1.00
2023-08-08T15:03:11.411Z,1.00
2023-08-08T15:05:38.317Z,1.00
2023-08-08T15:08:05.178Z,1.00
2023-08-08T15:10:34.364Z,1.00
2023-08-08T15:13:02.622Z,1.00
2023-08-08T15:15:30.917Z,1.00
2023-08-08T15:17:57.960Z,1.00
2023-08-08T15:20:25.004Z,1.00
2023-08-08T15:22:51.771Z,1.00
2023-08-08T15:25:18.592Z,1.00
2023-08-08T15:27:45.542Z,1.00
2023-08-08T15:30:12.514Z,1.00
2023-08-08T15:32:39.527Z,1.00
2023-08-08T15:35:06.817Z,1.00
2023-08-08T15:37:33.743Z,1.00
2023-08-08T15:40:00.732Z,1.00
2023-08-08T15:42:27.499Z,1.00
2023-08-08T15:44:54.337Z,1.00
2023-08-08T15:47:21.135Z,1.00
2023-08-08T15:49:49.010Z,1.00
2023-08-08T15:52:15.936Z,1.00
2023-08-08T15:54:42.807Z,1.00
2023-08-08T15:57:09.939Z,1.00
2023-08-08T15:59:38.479Z,1.00
2023-08-08T16:02:05.411Z,1.00
2023-08-08T16:04:32.253Z,1.00
2023-08-08T16:06:59.411Z,1.00
2023-08-08T16:09:26.724Z,1.00
2023-08-08T16:11:53.623Z,1.00
2023-08-08T16:14:21.052Z,1.00
2023-08-08T16:16:47.958Z,1.00
2023-08-08T16:19:15.008Z,1.00
2023-08-08T16:21:42.073Z,1.00
2023-08-08T16:24:09.816Z,1.00
2023-08-08T16:26:36.614Z,1.00
2023-08-08T16:29:03.494Z,1.00
2023-08-08T16:31:31.111Z,1.00
2023-08-08T16:33:58.758Z,1.00
2023-08-08T16:36:25.564Z,1.00
2023-08-08T16:38:53.622Z,1.00
2023-08-08T16:41:22.412Z,1.00
2023-08-08T16:43:55.292Z,1.00
2023-08-08T16:46:22.075Z,1.00
2023-08-08T16:48:48.895Z,1.00
2023-08-08T16:51:15.697Z,1.00
2023-08-08T16:53:42.648Z,1.00
2023-08-08T16:56:09.393Z,1.00
2023-08-08T16:58:36.200Z,1.00
2023-08-08T17:01:03.141Z,1.00
2023-08-08T17:03:30.020Z,1.00
2023-08-08T17:05:56.915Z,1.00
2023-08-08T17:08:23.734Z,1.00
2023-08-08T17:10:50.628Z,1.00
2023-08-08T17:13:17.429Z,1.00
2023-08-08T17:15:46.098Z,1.00
2023-08-08T17:18:14.160Z,1.00
2023-08-08T17:20:41.459Z,1.00
2023-08-08T17:23:08.662Z,1.00
2023-08-08T17:25:35.435Z,1.00
2023-08-08T17:28:03.729Z,1.00
2023-08-08T17:30:31.084Z,1.00
2023-08-08T17:32:58.012Z,1.00
2023-08-08T17:35:27.297Z,1.00
2023-08-08T17:37:54.108Z,1.00
2023-08-08T17:40:21.030Z,1.00
2023-08-08T17:42:47.785Z,1.00
2023-08-08T17:45:14.611Z,1.00
2023-08-08T17:47:41.515Z,1.00
2023-08-08T17:50:08.921Z,1.00
2023-08-08T17:52:35.697Z,1.00
2023-08-08T17:55:02.520Z,1.00
2023-08-08T17:57:29.278Z,1.00
2023-08-08T17:59:56.068Z,1.00
2023-08-08T18:02:23.998Z,1.00
2023-08-08T18:04:51.037Z,1.00
2023-08-08T18:07:17.809Z,1.00
2023-08-08T18:09:48.111Z,1.00
2023-08-08T18:12:16.523Z,1.00
2023-08-08T18:14:43.260Z,1.00
2023-08-08T18:17:10.030Z,1.00
2023-08-08T18:19:36.825Z,1.00
2023-08-08T18:22:04.534Z,1.00
2023-08-08T18:24:31.614Z,1.00
2023-08-08T18:26:58.371Z,1.00
2023-08-08T18:29:25.115Z,1.00
2023-08-08T18:31:51.928Z,1.00
2023-08-08T18:34:18.701Z,1.00
2023-08-08T18:36:45.451Z,1.00
2023-08-08T18:39:12.199Z,1.00
2023-08-08T18:41:38.993Z,1.00
2023-08-08T18:44:07.251Z,1.00
2023-08-08T18:46:37.169Z,1.00
2023-08-08T18:49:04.029Z,1.00
2023-08-08T18:51:30.773Z,1.00
2023-08-08T18:53:57.539Z,1.00
2023-08-08T18:56:24.789Z,1.00
2023-08-08T18:58:51.515Z,1.00
2023-08-08T19:01:18.288Z,1.00
2023-08-08T19:03:45.305Z,1.00
2023-08-08T19:06:12.226Z,1.00
2023-08-08T19:08:39.064Z,1.00
2023-08-08T19:11:06.360Z,1.00
2023-08-08T19:13:33.126Z,1.00
2023-08-08T19:15:59.917Z,1.00
2023-08-08T19:18:26.732Z,1.00
2023-08-08T19:20:54.582Z,1.00
2023-08-08T19:23:21.408Z,1.00
2023-08-08T19:25:48.175Z,1.00
2023-08-08T19:28:15.012Z,1.00
2023-08-08T19:30:41.776Z,1.00
2023-08-08T19:33:08.928Z,1.00
2023-08-08T19:35:36.510Z,1.00
2023-08-08T19:38:03.490Z,1.00
2023-08-08T19:40:32.420Z,1.00
2023-08-08T19:42:59.185Z,1.00
2023-08-08T19:45:25.972Z,1.00
2023-08-08T19:47:52.853Z,1.00
2023-08-08T19:50:19.621Z,1.00
2023-08-08T19:52:48.186Z,1.00
2023-08-08T19:55:14.968Z,1.00
2023-08-08T19:57:41.726Z,1.00
2023-08-08T20:00:09.194Z,1.00
2023-08-08T20:02:36.059Z,1.00
2023-08-08T20:05:02.886Z,1.00
2023-08-08T20:07:29.663Z,1.00
2023-08-08T20:09:56.484Z,1.00
2023-08-08T20:12:23.513Z,1.00
2023-08-08T20:14:50.553Z,1.00
2023-08-08T20:17:17.320Z,1.00
2023-08-08T20:19:44.105Z,1.00
2023-08-08T20:22:10.878Z,1.00
2023-08-08T20:24:37.645Z,1.00
2023-08-08T20:27:04.858Z,1.00
2023-08-08T20:29:32.057Z,1.00
2023-08-08T20:31:58.826Z,1.00
2023-08-08T20:34:29.294Z,1.00
2023-08-08T20:36:56.088Z,1.00
2023-08-08T20:39:22.832Z,1.00
2023-08-08T20:41:49.617Z,1.00
2023-08-08T20:44:16.457Z,1.00
2023-08-08T20:46:43.236Z,1.00
2023-08-08T20:49:09.980Z,1.00
2023-08-08T20:51:36.767Z,1.00
2023-08-08T20:54:03.644Z,1.00
2023-08-08T20:56:30.442Z,1.00
2023-08-08T20:58:57.200Z,1.00
2023-08-08T21:01:24.024Z,1.00
2023-08-08T21:03:50.858Z,1.00
2023-08-08T21:06:17.636Z,1.00
2023-08-08T21:08:44.451Z,1.00
2023-08-08T21:11:11.208Z,1.00
2023-08-08T21:13:37.941Z,1.00
2023-08-08T21:16:04.658Z,1.00
2023-08-08T21:18:31.486Z,1.00
2023-08-08T21:20:58.228Z,1.00
2023-08-08T21:23:24.975Z,1.00
2023-08-08T21:25:51.797Z,1.00
2023-08-08T21:28:18.573Z,1.00
2023-08-08T21:30:45.588Z,1.00
2023-08-08T21:33:12.381Z,1.00
2023-08-08T21:35:39.097Z,1.00
2023-08-08T21:38:11.243Z,1.00
2023-08-08T21:40:38.834Z,1.00
2023-08-08T21:43:05.623Z,1.00
2023-08-08T21:45:32.557Z,1.00
2023-08-08T21:48:00.324Z,1.00
2023-08-08T21:50:27.176Z,1.00
2023-08-08T21:52:53.954Z,1.00
2023-08-08T21:55:20.985Z,1.00
2023-08-08T21:57:47.872Z,1.00
2023-08-08T22:00:16.051Z,1.00
2023-08-08T22:02:43.111Z,1.00
2023-08-08T22:05:10.228Z,1.00
2023-08-08T22:07:37.118Z,1.00
2023-08-08T22:10:04.868Z,1.00
2023-08-08T22:12:31.634Z,1.00
2023-08-08T22:14:58.535Z,1.00
2023-08-08T22:17:25.362Z,1.00
2023-08-08T22:19:52.805Z,1.00
2023-08-08T22:22:19.594Z,1.00
2023-08-08T22:24:46.363Z,1.00
2023-08-08T22:27:13.178Z,1.00
2023-08-08T22:29:39.963Z,1.00
2023-08-08T22:32:06.810Z,1.00
2023-08-08T22:34:33.554Z,1.00
2023-08-08T22:37:00.415Z,1.00
2023-08-08T22:39:27.421Z,1.00
2023-08-08T22:41:54.177Z,1.00
2023-08-08T22:44:20.954Z,1.00
2023-08-08T22:46:47.700Z,1.00
2023-08-08T22:49:14.495Z,1.00
2023-08-08T22:51:41.236Z,1.00
2023-08-08T22:54:08.024Z,1.00
2023-08-08T22:56:35.083Z,1.00
2023-08-08T22:59:01.856Z,1.00
2023-08-08T23:01:28.683Z,1.00
2023-08-08T23:03:55.543Z,1.00
2023-08-08T23:06:22.338Z,1.00
2023-08-08T23:08:50.588Z,1.00
2023-08-08T23:11:17.344Z,1.00
2023-08-08T23:13:44.077Z,1.00
2023-08-08T23:16:10.842Z,1.00
2023-08-08T23:18:37.636Z,1.00
2023-08-08T23:21:04.372Z,1.00
2023-08-08T23:23:31.159Z,1.00
2023-08-08T23:25:57.903Z,1.00
2023-08-08T23:28:24.656Z,1.00
2023-08-08T23:30:51.602Z,1.00
2023-08-08T23:33:18.468Z,1.00
2023-08-08T23:35:45.534Z,1.00
2023-08-08T23:38:12.404Z,1.00
2023-08-08T23:40:39.171Z,1.00
2023-08-08T23:43:05.940Z,1.00
2023-08-08T23:45:32.752Z,1.00
2023-08-08T23:48:01.328Z,1.00
2023-08-08T23:50:28.194Z,1.00
2023-08-08T23:52:55.379Z,1.00
2023-08-08T23:55:22.259Z,1.00
2023-08-08T23:57:49.031Z,1.00
